Cumberland Foreside, Maine
Current Conditions -  °F | °C
As of 8:51 PM on Wednesday 17 Dec 2014 (Local Time) from KPWM Reporting Station
Overcast Overcast  
Wind Chill: 33°   Ceiling: 1100
Heat Index: 39°   Visibility: 10mi
Dew Point: 36°   Wind: 8mph
Humidity: 89%   Direction: 320°NW
Pressure: 29.68"   Gusts: NA
Location:  43.77°N, 70.2°W
Report Text: KPWM 180151Z 32007KT 10SM OVC011 04/02 A2968 RMK AO2 SLP051 T00390022
Loading
Personal Weather Stations






























Interactive Weather Map New forecast layout! Learn more

10-Day Weather Forecast

Advertisements
Track Severe Weather on mobile